createdAt,value
2019-05-23T00:02:22.219Z,12.12
2019-05-23T00:04:55.553Z,12.05
2019-05-23T00:07:25.529Z,11.81
2019-05-23T00:09:52.921Z,11.81
2019-05-23T00:12:40.471Z,11.64
2019-05-23T00:15:14.440Z,11.61
2019-05-23T00:17:42.898Z,11.81
2019-05-23T00:20:11.046Z,11.90
2019-05-23T00:22:38.905Z,12.02
2019-05-23T00:25:07.463Z,11.79
2019-05-23T00:27:36.353Z,11.69
2019-05-23T00:30:04.981Z,11.62
2019-05-23T00:32:46.271Z,11.44
2019-05-23T00:35:14.416Z,11.62
2019-05-23T00:37:43.012Z,11.60
2019-05-23T00:40:12.507Z,11.38
2019-05-23T00:42:40.430Z,11.53
2019-05-23T00:45:09.866Z,11.64
2019-05-23T00:47:38.893Z,11.65
2019-05-23T00:50:08.036Z,11.59
2019-05-23T00:52:37.799Z,11.47
2019-05-23T00:55:05.718Z,11.46
2019-05-23T00:57:34.004Z,11.35
2019-05-23T01:00:01.882Z,11.33
2019-05-23T01:02:31.386Z,11.23
2019-05-23T01:04:58.670Z,11.17
2019-05-23T01:07:26.468Z,11.14
2019-05-23T01:09:53.791Z,11.13
2019-05-23T01:12:23.935Z,11.07
2019-05-23T01:14:51.503Z,11.01
2019-05-23T01:17:20.254Z,10.91
2019-05-23T01:19:52.342Z,10.89
2019-05-23T01:22:20.934Z,10.75
2019-05-23T01:24:52.642Z,10.69
2019-05-23T01:27:20.276Z,10.72
2019-05-23T01:29:50.232Z,10.67
2019-05-23T01:32:41.790Z,10.66
2019-05-23T01:35:10.561Z,10.33
2019-05-23T01:37:38.851Z,10.48
2019-05-23T01:40:08.586Z,10.53
2019-05-23T01:42:36.252Z,10.48
2019-05-23T01:45:05.652Z,10.47
2019-05-23T01:47:34.042Z,10.46
2019-05-23T01:50:01.781Z,10.40
2019-05-23T01:52:29.410Z,10.40
2019-05-23T01:54:57.138Z,10.38
2019-05-23T01:57:24.828Z,10.35
2019-05-23T02:00:08.086Z,10.29
2019-05-23T02:02:22.376Z,10.25
2019-05-23T02:04:50.387Z,10.27
2019-05-23T02:07:19.884Z,10.24
2019-05-23T02:09:47.781Z,10.18
2019-05-23T02:12:16.254Z,10.12
2019-05-23T02:14:45.285Z,10.02
2019-05-23T02:17:13.270Z,9.95
2019-05-23T02:19:40.960Z,9.84
2019-05-23T02:22:11.750Z,10.08
2019-05-23T02:24:39.513Z,10.11
2019-05-23T02:27:09.419Z,9.93
2019-05-23T02:29:37.519Z,9.78
2019-05-23T02:32:06.566Z,9.96
2019-05-23T02:34:34.679Z,9.99
2019-05-23T02:37:03.872Z,9.99
2019-05-23T02:39:41.858Z,9.78
2019-05-23T02:42:40.422Z,9.73
2019-05-23T02:45:10.611Z,9.92
2019-05-23T02:47:44.601Z,10.09
2019-05-23T02:50:35.811Z,9.91
2019-05-23T02:53:05.229Z,9.62
2019-05-23T02:55:38.607Z,9.80
2019-05-23T02:58:38.087Z,9.77
2019-05-23T03:01:35.642Z,9.61
2019-05-23T03:04:07.472Z,9.62
2019-05-23T03:06:37.543Z,9.64
2019-05-23T03:09:06.758Z,9.61
2019-05-23T03:11:40.018Z,9.64
2019-05-23T03:14:11.190Z,9.76
2019-05-23T03:16:43.569Z,9.59
2019-05-23T03:19:22.689Z,9.53
2019-05-23T03:21:53.515Z,9.50
2019-05-23T03:24:21.614Z,9.44
2019-05-23T03:27:21.687Z,9.45
2019-05-23T03:29:51.316Z,9.48
2019-05-23T03:32:39.417Z,9.57
2019-05-23T03:35:12.942Z,9.90
2019-05-23T03:37:40.608Z,9.88
2019-05-23T03:40:10.246Z,9.81
2019-05-23T03:42:38.052Z,9.89
2019-05-23T03:45:07.449Z,9.93
2019-05-23T03:47:36.181Z,9.85
2019-05-23T03:50:05.456Z,9.91
2019-05-23T03:52:32.673Z,9.92
2019-05-23T03:55:02.065Z,9.95
2019-05-23T03:57:29.277Z,9.68
2019-05-23T03:59:58.736Z,9.58
2019-05-23T04:02:26.371Z,9.65
2019-05-23T04:04:56.130Z,9.93
2019-05-23T04:07:24.359Z,10.08
2019-05-23T04:09:52.062Z,9.80
2019-05-23T04:12:19.894Z,10.11
2019-05-23T04:14:47.601Z,10.31
2019-05-23T04:17:14.857Z,10.44
2019-05-23T04:19:42.227Z,10.51
2019-05-23T04:22:09.622Z,10.64
2019-05-23T04:24:38.321Z,10.69
2019-05-23T04:27:06.485Z,10.77
2019-05-23T04:29:34.369Z,10.80
2019-05-23T04:32:08.059Z,10.87
2019-05-23T04:34:31.159Z,10.93
2019-05-23T04:36:58.403Z,10.99
2019-05-23T04:39:25.686Z,11.10
2019-05-23T04:41:53.237Z,11.16
2019-05-23T04:44:20.460Z,11.12
2019-05-23T04:46:47.639Z,11.30
2019-05-23T04:49:14.934Z,11.44
2019-05-23T04:51:43.204Z,11.50
2019-05-23T04:54:11.532Z,11.93
2019-05-23T04:56:39.745Z,12.11
2019-05-23T04:59:07.448Z,12.19
2019-05-23T05:01:35.592Z,12.35
2019-05-23T05:04:03.881Z,12.37
2019-05-23T05:06:31.542Z,12.55
2019-05-23T05:08:59.939Z,12.67
2019-05-23T05:11:30.400Z,12.82
2019-05-23T05:13:57.427Z,12.95
2019-05-23T05:16:25.292Z,12.72
2019-05-23T05:18:55.197Z,12.72
2019-05-23T05:21:22.580Z,12.67
2019-05-23T05:23:49.837Z,12.59
2019-05-23T05:26:22.134Z,12.63
2019-05-23T05:28:50.501Z,12.81
2019-05-23T05:31:17.863Z,12.53
2019-05-23T05:33:45.115Z,12.47
2019-05-23T05:36:12.500Z,12.36
2019-05-23T05:38:40.092Z,12.62
2019-05-23T05:41:07.820Z,12.73
2019-05-23T05:43:35.966Z,12.61
2019-05-23T05:46:03.344Z,12.56
2019-05-23T05:48:31.488Z,12.75
2019-05-23T05:50:58.709Z,12.84
2019-05-23T05:53:26.016Z,12.74
2019-05-23T05:55:53.323Z,13.16
2019-05-23T05:58:20.667Z,13.51
2019-05-23T06:00:51.393Z,13.39
2019-05-23T06:03:19.062Z,13.56
2019-05-23T06:06:05.891Z,13.62
2019-05-23T06:08:35.023Z,14.23
2019-05-23T06:11:02.663Z,15.03
2019-05-23T06:13:29.891Z,17.05
2019-05-23T06:15:57.203Z,18.03
2019-05-23T06:18:24.418Z,16.75
2019-05-23T06:20:52.686Z,17.52
2019-05-23T06:23:21.290Z,18.48
2019-05-23T06:25:48.684Z,19.33
2019-05-23T06:28:16.488Z,19.07
2019-05-23T06:30:45.352Z,18.03
2019-05-23T06:33:22.427Z,17.98
2019-05-23T06:35:42.337Z,18.46
2019-05-23T06:38:10.339Z,18.70
2019-05-23T06:40:38.382Z,18.07
2019-05-23T06:43:06.418Z,18.66
2019-05-23T06:45:33.835Z,19.56
2019-05-23T06:48:01.445Z,20.78
2019-05-23T06:50:29.854Z,18.57
2019-05-23T06:52:57.274Z,18.48
2019-05-23T06:55:24.483Z,18.92
2019-05-23T06:57:52.441Z,18.30
2019-05-23T07:00:22.587Z,18.64
2019-05-23T07:02:49.810Z,17.98
2019-05-23T07:05:21.357Z,18.99
2019-05-23T07:07:48.574Z,19.26
2019-05-23T07:10:16.091Z,18.25
2019-05-23T07:12:43.801Z,18.58
2019-05-23T07:15:11.976Z,19.24
2019-05-23T07:17:39.197Z,19.62
2019-05-23T07:20:07.530Z,19.90
2019-05-23T07:22:35.116Z,19.89
2019-05-23T07:25:03.388Z,19.02
2019-05-23T07:27:31.594Z,18.98
2019-05-23T07:30:00.116Z,19.81
2019-05-23T07:32:27.807Z,18.60
2019-05-23T07:34:55.354Z,19.16
2019-05-23T07:37:22.527Z,20.78
2019-05-23T07:39:49.715Z,20.64
2019-05-23T07:42:17.242Z,20.38
2019-05-23T07:44:48.522Z,20.82
2019-05-23T07:47:16.088Z,20.52
2019-05-23T07:49:43.285Z,21.42
2019-05-23T07:52:10.479Z,21.86
2019-05-23T07:54:47.626Z,22.25
2019-05-23T07:57:15.456Z,21.22
2019-05-23T07:59:42.648Z,20.26
2019-05-23T08:02:33.778Z,20.95
2019-05-23T08:05:02.284Z,21.57
2019-05-23T08:07:32.663Z,21.42
2019-05-23T08:09:59.079Z,21.30
2019-05-23T08:12:26.618Z,23.32
2019-05-23T08:14:53.799Z,23.72
2019-05-23T08:17:21.256Z,24.51
2019-05-23T08:19:50.400Z,22.65
2019-05-23T08:22:17.843Z,21.50
2019-05-23T08:24:45.170Z,21.43
2019-05-23T08:27:12.716Z,22.66
2019-05-23T08:29:40.848Z,22.18
2019-05-23T08:32:09.364Z,21.94
2019-05-23T08:34:42.526Z,21.25
2019-05-23T08:37:07.270Z,22.39
2019-05-23T08:39:35.839Z,22.84
2019-05-23T08:42:03.784Z,21.17
2019-05-23T08:44:31.546Z,21.81
2019-05-23T08:46:58.882Z,23.38
2019-05-23T08:49:26.263Z,24.30
2019-05-23T08:51:54.140Z,24.29
2019-05-23T08:54:21.339Z,23.96
2019-05-23T08:56:48.954Z,22.39
2019-05-23T08:59:16.745Z,22.26
2019-05-23T09:01:44.847Z,21.59
2019-05-23T09:04:12.557Z,22.22
2019-05-23T09:06:41.171Z,23.30
2019-05-23T09:09:27.508Z,21.23
2019-05-23T09:11:39.810Z,22.87
2019-05-23T09:14:08.075Z,21.87
2019-05-23T09:16:36.633Z,21.92
2019-05-23T09:19:04.091Z,23.77
2019-05-23T09:21:31.551Z,21.77
2019-05-23T09:23:59.347Z,24.31
2019-05-23T09:26:26.555Z,24.53
2019-05-23T09:28:53.779Z,24.72
2019-05-23T09:31:21.861Z,24.72
2019-05-23T09:33:50.143Z,22.95
2019-05-23T09:36:17.449Z,24.31
2019-05-23T09:38:44.667Z,23.73
2019-05-23T09:41:12.285Z,23.43
2019-05-23T09:43:39.471Z,23.27
2019-05-23T09:46:06.663Z,23.49
2019-05-23T09:48:34.256Z,22.82
2019-05-23T09:51:01.575Z,22.91
2019-05-23T09:53:28.819Z,22.21
2019-05-23T09:55:56.149Z,23.83
2019-05-23T09:58:23.713Z,22.78
2019-05-23T10:00:51.026Z,23.90
2019-05-23T10:03:20.131Z,23.80
2019-05-23T10:05:47.327Z,22.52
2019-05-23T10:08:15.110Z,21.38
2019-05-23T10:10:42.724Z,23.54
2019-05-23T10:13:10.338Z,23.65
2019-05-23T10:16:03.970Z,24.34
2019-05-23T10:18:31.321Z,24.34
2019-05-23T10:20:59.044Z,22.87
2019-05-23T10:23:26.446Z,23.80
2019-05-23T10:25:53.664Z,24.87
2019-05-23T10:28:21.113Z,23.72
2019-05-23T10:30:48.418Z,23.72
2019-05-23T10:33:15.646Z,24.26
2019-05-23T10:35:58.983Z,24.40
2019-05-23T10:38:12.407Z,25.10
2019-05-23T10:40:40.526Z,25.11
2019-05-23T10:43:08.563Z,24.07
2019-05-23T10:45:36.190Z,24.25
2019-05-23T10:48:04.866Z,23.70
2019-05-23T10:50:44.335Z,23.66
2019-05-23T10:53:01.347Z,23.65
2019-05-23T10:55:29.811Z,25.25
2019-05-23T10:57:57.024Z,24.65
2019-05-23T11:00:25.562Z,22.92
2019-05-23T11:02:53.374Z,24.18
2019-05-23T11:05:21.168Z,25.10
2019-05-23T11:07:48.503Z,24.58
2019-05-23T11:10:17.703Z,24.33
2019-05-23T11:12:44.931Z,24.53
2019-05-23T11:15:13.914Z,24.43
2019-05-23T11:17:41.133Z,24.80
2019-05-23T11:20:09.844Z,25.38
2019-05-23T11:22:37.936Z,25.44
2019-05-23T11:25:07.062Z,24.12
2019-05-23T11:27:34.569Z,24.70
2019-05-23T11:30:01.896Z,25.74
2019-05-23T11:32:29.234Z,23.15
2019-05-23T11:34:56.456Z,23.48
2019-05-23T11:37:24.929Z,23.73
2019-05-23T11:39:52.771Z,24.21
2019-05-23T11:42:19.981Z,24.44
2019-05-23T11:44:47.579Z,24.06
2019-05-23T11:47:15.215Z,25.51
2019-05-23T11:49:44.370Z,24.35
2019-05-23T11:52:12.101Z,23.71
2019-05-23T11:54:39.437Z,23.48
2019-05-23T11:57:08.887Z,23.70
2019-05-23T11:59:36.094Z,24.12
2019-05-23T12:02:41.211Z,25.14
2019-05-23T12:05:15.813Z,25.58
2019-05-23T12:07:43.630Z,24.24
2019-05-23T12:10:11.147Z,25.84
2019-05-23T12:12:38.381Z,26.18
2019-05-23T12:15:11.226Z,26.22
2019-05-23T12:17:39.249Z,25.26
2019-05-23T12:20:06.857Z,25.76
2019-05-23T12:22:34.643Z,24.54
2019-05-23T12:25:20.088Z,23.44
2019-05-23T12:27:32.262Z,25.20
2019-05-23T12:29:59.637Z,25.30
2019-05-23T12:32:26.921Z,25.60
2019-05-23T12:35:09.251Z,25.28
2019-05-23T12:37:23.576Z,25.71
2019-05-23T12:39:51.491Z,24.73
2019-05-23T12:42:18.781Z,26.47
2019-05-23T12:44:46.373Z,25.32
2019-05-23T12:47:24.571Z,25.16
2019-05-23T12:49:59.794Z,24.83
2019-05-23T12:52:27.130Z,25.48
2019-05-23T12:54:54.945Z,26.08
2019-05-23T12:57:22.726Z,26.33
2019-05-23T12:59:50.752Z,26.76
2019-05-23T13:02:24.708Z,27.62
2019-05-23T13:04:52.072Z,26.75
2019-05-23T13:07:35.127Z,25.06
2019-05-23T13:09:48.510Z,25.44
2019-05-23T13:12:16.620Z,25.05
2019-05-23T13:14:44.814Z,24.89
2019-05-23T13:17:12.282Z,26.30
2019-05-23T13:19:39.473Z,26.45
2019-05-23T13:22:08.933Z,26.02
2019-05-23T13:24:51.271Z,24.66
2019-05-23T13:27:05.663Z,24.94
2019-05-23T13:29:35.817Z,24.76
2019-05-23T13:32:03.648Z,25.73
2019-05-23T13:34:30.866Z,25.26
2019-05-23T13:36:58.085Z,23.92
2019-05-23T13:39:26.070Z,24.61
2019-05-23T13:41:53.836Z,24.37
2019-05-23T13:44:32.774Z,25.26
2019-05-23T13:46:50.816Z,26.16
2019-05-23T13:49:18.302Z,24.91
2019-05-23T13:51:45.652Z,24.58
2019-05-23T13:54:12.970Z,25.39
2019-05-23T13:56:40.862Z,24.13
2019-05-23T13:59:08.130Z,24.28
2019-05-23T14:01:36.342Z,25.86
2019-05-23T14:04:04.653Z,25.49
2019-05-23T14:06:32.317Z,26.29
2019-05-23T14:08:59.566Z,24.02
2019-05-23T14:11:26.765Z,24.91
2019-05-23T14:14:00.032Z,26.19
2019-05-23T14:16:23.385Z,26.69
2019-05-23T14:18:50.985Z,26.68
2019-05-23T14:21:18.374Z,27.29
2019-05-23T14:23:46.085Z,27.30
2019-05-23T14:26:13.453Z,28.05
2019-05-23T14:28:41.110Z,27.37
2019-05-23T14:31:16.141Z,26.02
2019-05-23T14:33:53.301Z,27.14
2019-05-23T14:36:43.802Z,25.70
2019-05-23T14:39:18.668Z,26.16
2019-05-23T14:41:55.571Z,26.51
2019-05-23T14:44:22.905Z,26.61
2019-05-23T14:47:12.704Z,27.53
2019-05-23T14:49:45.115Z,27.09
2019-05-23T14:52:20.129Z,26.76
2019-05-23T14:54:52.195Z,25.50
2019-05-23T14:57:19.508Z,25.38
2019-05-23T14:59:47.070Z,26.52
2019-05-23T15:02:17.754Z,26.18
2019-05-23T15:04:45.084Z,27.33
2019-05-23T15:07:12.490Z,25.44
2019-05-23T15:09:40.186Z,25.16
2019-05-23T15:12:08.612Z,25.16
2019-05-23T15:14:35.824Z,24.55
2019-05-23T15:17:03.624Z,25.10
2019-05-23T15:19:41.684Z,24.85
2019-05-23T15:22:00.389Z,24.46
2019-05-23T15:24:28.512Z,24.46
2019-05-23T15:26:55.737Z,24.88
2019-05-23T15:29:23.325Z,24.67
2019-05-23T15:32:01.613Z,25.37
2019-05-23T15:34:19.713Z,25.03
2019-05-23T15:36:46.942Z,25.48
2019-05-23T15:39:14.874Z,25.57
2019-05-23T15:41:42.081Z,25.73
2019-05-23T15:44:23.714Z,25.63
2019-05-23T15:46:38.841Z,25.49
2019-05-23T15:49:08.078Z,24.67
2019-05-23T15:51:41.449Z,24.67
2019-05-23T15:54:15.599Z,24.86
2019-05-23T15:56:50.783Z,24.32
2019-05-23T15:59:25.694Z,24.62
2019-05-23T16:02:12.743Z,24.33
2019-05-23T16:04:41.024Z,25.28
2019-05-23T16:07:10.315Z,24.96
2019-05-23T16:09:37.778Z,24.96
2019-05-23T16:12:06.091Z,24.71
2019-05-23T16:14:33.298Z,24.08
2019-05-23T16:17:00.927Z,24.48
2019-05-23T16:19:28.235Z,24.97
2019-05-23T16:21:55.844Z,24.16
2019-05-23T16:24:23.222Z,23.88
2019-05-23T16:26:50.650Z,24.45
2019-05-23T16:29:18.957Z,24.57
2019-05-23T16:31:46.744Z,24.41
2019-05-23T16:34:13.967Z,23.83
2019-05-23T16:36:41.590Z,23.62
2019-05-23T16:39:08.859Z,24.16
2019-05-23T16:41:36.615Z,24.21
2019-05-23T16:44:04.139Z,24.34
2019-05-23T16:46:31.391Z,24.32
2019-05-23T16:48:59.250Z,24.44
2019-05-23T16:51:26.954Z,23.53
2019-05-23T16:53:54.304Z,23.85
2019-05-23T16:56:36.227Z,23.68
2019-05-23T16:59:17.714Z,23.26
2019-05-23T17:02:00.423Z,22.88
2019-05-23T17:04:32.344Z,23.07
2019-05-23T17:07:19.214Z,23.26
2019-05-23T17:10:07.628Z,23.17
2019-05-23T17:12:55.039Z,22.69
2019-05-23T17:15:41.249Z,22.77
2019-05-23T17:18:27.134Z,22.81
2019-05-23T17:21:03.602Z,23.18
2019-05-23T17:24:05.673Z,22.76
2019-05-23T17:26:43.587Z,23.24
2019-05-23T17:29:18.909Z,22.53
2019-05-23T17:31:47.961Z,22.78
2019-05-23T17:34:15.696Z,23.12
2019-05-23T17:36:43.098Z,22.73
2019-05-23T17:39:12.246Z,22.98
2019-05-23T17:41:39.466Z,22.86
2019-05-23T17:44:06.983Z,23.05
2019-05-23T17:46:34.498Z,22.66
2019-05-23T17:49:02.106Z,22.75
2019-05-23T17:51:29.416Z,22.39
2019-05-23T17:53:56.633Z,22.64
2019-05-23T17:56:24.183Z,22.47
2019-05-23T17:58:51.690Z,22.38
2019-05-23T18:01:19.781Z,22.71
2019-05-23T18:03:46.962Z,22.72
2019-05-23T18:06:14.330Z,22.71
2019-05-23T18:08:42.146Z,22.79
2019-05-23T18:11:10.079Z,22.83
2019-05-23T18:13:37.290Z,22.50
2019-05-23T18:16:04.986Z,22.62
2019-05-23T18:18:32.790Z,22.80
2019-05-23T18:21:00.263Z,23.01
2019-05-23T18:23:27.470Z,23.03
2019-05-23T18:25:54.895Z,23.02
2019-05-23T18:28:22.392Z,22.84
2019-05-23T18:30:56.941Z,22.79
2019-05-23T18:33:26.609Z,22.70
2019-05-23T18:35:55.852Z,22.25
2019-05-23T18:38:23.980Z,22.35
2019-05-23T18:41:02.321Z,22.43
2019-05-23T18:43:21.900Z,22.16
2019-05-23T18:45:51.100Z,21.98
2019-05-23T18:48:18.431Z,22.00
2019-05-23T18:50:46.088Z,21.92
2019-05-23T18:53:13.345Z,21.79
2019-05-23T18:55:40.639Z,21.34
2019-05-23T18:58:08.349Z,21.42
2019-05-23T19:00:59.354Z,21.35
2019-05-23T19:03:27.006Z,21.35
2019-05-23T19:05:55.119Z,21.35
2019-05-23T19:08:23.087Z,21.23
2019-05-23T19:10:50.483Z,20.98
2019-05-23T19:13:17.647Z,20.98
2019-05-23T19:15:45.160Z,20.84
2019-05-23T19:18:12.687Z,20.67
2019-05-23T19:20:40.946Z,20.50
2019-05-23T19:23:08.984Z,20.34
2019-05-23T19:25:36.983Z,20.19
2019-05-23T19:28:04.440Z,20.05
2019-05-23T19:30:31.701Z,19.93
2019-05-23T19:32:59.246Z,19.67
2019-05-23T19:35:27.040Z,19.67
2019-05-23T19:37:54.271Z,19.47
2019-05-23T19:40:21.531Z,19.43
2019-05-23T19:42:49.540Z,19.28
2019-05-23T19:45:16.907Z,19.30
2019-05-23T19:47:44.112Z,19.20
2019-05-23T19:50:11.846Z,19.02
2019-05-23T19:52:40.008Z,19.08
2019-05-23T19:55:07.293Z,18.92
2019-05-23T19:57:35.566Z,18.90
2019-05-23T20:00:05.985Z,18.87
2019-05-23T20:02:41.601Z,18.42
2019-05-23T20:05:17.456Z,18.37
2019-05-23T20:07:44.946Z,18.58
2019-05-23T20:10:14.826Z,18.67
2019-05-23T20:12:42.413Z,18.70
2019-05-23T20:15:10.048Z,18.64
2019-05-23T20:17:37.279Z,18.76
2019-05-23T20:20:04.628Z,18.74
2019-05-23T20:22:31.933Z,18.34
2019-05-23T20:24:59.144Z,18.57
2019-05-23T20:27:26.361Z,18.31
2019-05-23T20:29:53.555Z,18.50
2019-05-23T20:32:21.579Z,18.33
2019-05-23T20:34:48.787Z,18.41
2019-05-23T20:37:16.197Z,18.43
2019-05-23T20:39:43.640Z,18.30
2019-05-23T20:42:12.193Z,17.82
2019-05-23T20:44:39.762Z,17.67
2019-05-23T20:47:07.753Z,17.68
2019-05-23T20:49:35.340Z,17.79
2019-05-23T20:52:02.564Z,17.87
2019-05-23T20:54:33.332Z,17.82
2019-05-23T20:56:59.105Z,17.82
2019-05-23T20:59:29.021Z,17.50
2019-05-23T21:01:56.282Z,17.37
2019-05-23T21:04:23.470Z,17.41
2019-05-23T21:06:51.502Z,17.47
2019-05-23T21:09:19.156Z,17.40
2019-05-23T21:11:46.381Z,17.33
2019-05-23T21:14:13.563Z,17.28
2019-05-23T21:16:40.764Z,17.23
2019-05-23T21:19:08.389Z,17.07
2019-05-23T21:21:35.749Z,16.98
2019-05-23T21:24:03.141Z,16.90
2019-05-23T21:26:30.430Z,16.87
2019-05-23T21:28:58.081Z,16.75
2019-05-23T21:31:25.609Z,16.71
2019-05-23T21:33:52.808Z,16.66
2019-05-23T21:36:20.474Z,16.68
2019-05-23T21:38:47.680Z,16.63
2019-05-23T21:41:15.672Z,16.47
2019-05-23T21:43:43.693Z,16.34
2019-05-23T21:46:11.408Z,16.29
2019-05-23T21:48:38.630Z,16.24
2019-05-23T21:51:06.032Z,16.18
2019-05-23T21:53:33.257Z,16.04
2019-05-23T21:56:00.953Z,16.03
2019-05-23T21:58:28.177Z,15.99
2019-05-23T22:01:27.406Z,15.95
2019-05-23T22:04:14.499Z,15.93
2019-05-23T22:06:45.565Z,15.96
2019-05-23T22:09:13.260Z,15.92
2019-05-23T22:11:40.588Z,15.83
2019-05-23T22:14:08.249Z,15.77
2019-05-23T22:16:36.195Z,15.70
2019-05-23T22:19:05.613Z,15.63
2019-05-23T22:21:32.931Z,15.56
2019-05-23T22:24:00.732Z,15.26
2019-05-23T22:26:28.141Z,15.32
2019-05-23T22:28:55.854Z,15.33
2019-05-23T22:31:23.559Z,15.29
2019-05-23T22:33:57.526Z,15.17
2019-05-23T22:36:24.827Z,15.18
2019-05-23T22:38:52.779Z,15.19
2019-05-23T22:41:20.042Z,15.13
2019-05-23T22:43:47.713Z,15.11
2019-05-23T22:46:15.437Z,15.03
2019-05-23T22:48:43.055Z,15.00
2019-05-23T22:51:10.268Z,14.92
2019-05-23T22:53:37.479Z,14.89
2019-05-23T22:56:05.158Z,14.86
2019-05-23T22:58:32.693Z,14.77
2019-05-23T23:00:59.976Z,14.72
2019-05-23T23:03:27.427Z,14.57
2019-05-23T23:05:54.666Z,14.52
2019-05-23T23:08:23.418Z,14.52
2019-05-23T23:10:50.679Z,14.54
2019-05-23T23:13:17.870Z,14.59
2019-05-23T23:15:45.140Z,14.50
2019-05-23T23:18:12.773Z,14.42
2019-05-23T23:20:39.966Z,14.39
2019-05-23T23:23:07.222Z,14.39
2019-05-23T23:25:34.436Z,14.35
2019-05-23T23:28:01.969Z,14.26
2019-05-23T23:30:32.721Z,14.25
2019-05-23T23:32:59.925Z,14.28
2019-05-23T23:35:27.117Z,14.33
2019-05-23T23:37:54.329Z,14.30
2019-05-23T23:40:21.560Z,14.11
2019-05-23T23:42:48.779Z,13.83
2019-05-23T23:45:35.077Z,14.11
2019-05-23T23:48:20.702Z,14.18
2019-05-23T23:51:06.907Z,14.21
2019-05-23T23:53:52.472Z,14.04
2019-05-23T23:56:38.854Z,13.86
2019-05-23T23:59:05.730Z,13.81
